Time;durP1;ratioP1;P1;durP2;ratioP2;P2;SDS_P1;SDS_P2;PMS_P1;PMS_P2;Temp;Humidity;BMP_temperature;BMP_pressure;BME280_temperature;BME280_humidity;BME280_pressure;Samples;Min_cycle;Max_cycle;Signal;HPM_P1;HPM_P2
2021/03/29 00:00:03;;;;;;;5.85;3.03;;;9.00;54.70;;;;;;5006501;28;20701;-64
2021/03/29 00:02:31;;;;;;;5.03;3.03;;;9.00;54.90;;;;;;5008163;28;20026;-63
2021/03/29 00:04:57;;;;;;;4.85;3.30;;;8.90;54.90;;;;;;5009020;28;20492;-64
2021/03/29 00:07:23;;;;;;;4.25;3.30;;;8.80;54.90;;;;;;5009012;28;20037;-64
2021/03/29 00:09:50;;;;;;;5.13;3.35;;;8.80;55.00;;;;;;5005974;28;20531;-64
2021/03/29 00:12:18;;;;;;;4.03;3.22;;;8.80;55.20;;;;;;4999813;28;20626;-64
2021/03/29 00:14:48;;;;;;;6.72;3.42;;;8.70;55.20;;;;;;5017136;28;20499;-64
2021/03/29 00:17:15;;;;;;;5.63;2.67;;;8.70;55.40;;;;;;5006618;28;20042;-64
2021/03/29 00:19:43;;;;;;;5.65;2.90;;;8.60;55.40;;;;;;5006070;28;20033;-63
2021/03/29 00:22:11;;;;;;;4.10;2.58;;;8.50;55.80;;;;;;5004416;28;20041;-63
2021/03/29 00:24:40;;;;;;;5.35;3.20;;;8.50;55.70;;;;;;5007742;28;20041;-63
2021/03/29 00:27:09;;;;;;;7.80;3.90;;;8.50;55.80;;;;;;5009244;28;20460;-64
2021/03/29 00:29:39;;;;;;;5.97;3.72;;;8.40;56.00;;;;;;5000890;28;20030;-64
2021/03/29 00:32:08;;;;;;;6.80;3.83;;;8.40;56.30;;;;;;5004719;28;20181;-63
2021/03/29 00:34:35;;;;;;;4.68;3.72;;;8.30;56.20;;;;;;5007818;28;20030;-64
2021/03/29 00:37:01;;;;;;;5.40;3.05;;;8.30;56.50;;;;;;5005765;28;20044;-64
2021/03/29 00:39:35;;;;;;;3.90;2.72;;;8.20;56.60;;;;;;5007620;28;20033;-63
2021/03/29 00:42:08;;;;;;;3.38;2.80;;;8.20;56.80;;;;;;5009428;28;20058;-64
2021/03/29 00:44:39;;;;;;;5.25;3.08;;;8.10;56.80;;;;;;5006543;28;20073;-64
2021/03/29 00:47:05;;;;;;;3.13;2.80;;;8.00;56.70;;;;;;4995124;28;20034;-64
2021/03/29 00:49:33;;;;;;;3.58;2.80;;;8.00;56.70;;;;;;5007257;28;20037;-63
2021/03/29 00:51:59;;;;;;;5.20;3.05;;;8.00;56.80;;;;;;5006486;28;20034;-63
2021/03/29 00:54:31;;;;;;;6.80;3.15;;;7.90;57.00;;;;;;5004875;28;20128;-63
2021/03/29 00:56:59;;;;;;;5.28;3.05;;;7.90;57.40;;;;;;5000309;28;20083;-63
2021/03/29 00:59:31;;;;;;;4.65;2.88;;;7.90;57.20;;;;;;5008087;28;20516;-64
2021/03/29 01:01:57;;;;;;;5.55;3.25;;;7.80;57.60;;;;;;4999588;28;20048;-63
2021/03/29 01:04:30;;;;;;;7.63;3.67;;;7.80;57.40;;;;;;5004209;28;20038;-64
2021/03/29 01:06:56;;;;;;;4.50;3.40;;;7.80;57.70;;;;;;5004523;28;20408;-64
2021/03/29 01:09:25;;;;;;;7.05;3.67;;;7.70;57.60;;;;;;5006882;28;20049;-63
2021/03/29 01:11:54;;;;;;;6.97;3.42;;;7.70;57.80;;;;;;5000418;28;20079;-63
2021/03/29 01:14:25;;;;;;;5.32;3.92;;;7.60;57.70;;;;;;5004544;28;20033;-63
2021/03/29 01:17:37;;;;;;;6.72;4.03;;;7.60;58.00;;;;;;5004430;28;20581;-63
2021/03/29 01:20:07;;;;;;;5.38;3.33;;;7.50;58.90;;;;;;5002816;28;20125;-63
2021/03/29 01:22:41;;;;;;;5.30;3.28;;;7.50;57.90;;;;;;5001629;28;20580;-63
2021/03/29 01:25:30;;;;;;;7.72;3.70;;;7.40;58.10;;;;;;5004158;28;20556;-63
2021/03/29 01:28:22;;;;;;;6.57;3.78;;;7.40;58.80;;;;;;5006469;28;20405;-63
2021/03/29 01:30:51;;;;;;;10.23;4.90;;;7.30;58.90;;;;;;5003117;28;20112;-63
2021/03/29 01:33:21;;;;;;;13.48;5.72;;;7.30;58.30;;;;;;5003217;28;20998;-63
2021/03/29 01:35:56;;;;;;;20.75;7.85;;;7.30;58.40;;;;;;5007288;28;20112;-63
2021/03/29 01:38:31;;;;;;;15.07;6.88;;;7.20;58.70;;;;;;5007914;28;20038;-63
2021/03/29 01:41:00;;;;;;;20.48;7.93;;;7.20;58.80;;;;;;5007306;28;20026;-63
2021/03/29 01:43:27;;;;;;;20.40;8.18;;;7.10;58.70;;;;;;5006472;28;20050;-63
2021/03/29 01:45:56;;;;;;;12.45;6.15;;;7.00;58.90;;;;;;5002895;28;20030;-63
2021/03/29 01:48:26;;;;;;;7.38;4.32;;;7.00;59.00;;;;;;5005783;28;20137;-63
2021/03/29 01:50:55;;;;;;;7.10;3.80;;;6.90;60.10;;;;;;5006029;28;20468;-63
2021/03/29 01:53:26;;;;;;;7.32;3.50;;;6.90;59.80;;;;;;5004221;28;20125;-63
2021/03/29 01:55:54;;;;;;;8.55;3.85;;;6.90;60.60;;;;;;5001874;28;20564;-63
2021/03/29 01:58:27;;;;;;;6.43;3.65;;;6.90;60.60;;;;;;5006845;28;20421;-63
2021/03/29 02:00:59;;;;;;;6.03;3.95;;;6.90;61.10;;;;;;5003951;28;20037;-63
2021/03/29 02:03:28;;;;;;;6.95;4.22;;;6.90;61.70;;;;;;5002265;28;20584;-63
2021/03/29 02:05:58;;;;;;;7.10;3.90;;;6.90;62.00;;;;;;5005432;28;20034;-63
2021/03/29 02:08:30;;;;;;;7.07;3.58;;;6.90;61.20;;;;;;5001778;28;20519;-63
2021/03/29 02:10:58;;;;;;;9.23;4.00;;;6.90;61.00;;;;;;4999075;28;20068;-63
2021/03/29 02:13:32;;;;;;;8.88;4.07;;;6.90;60.60;;;;;;5006405;28;20080;-63
2021/03/29 02:16:06;;;;;;;7.57;4.05;;;7.00;60.90;;;;;;5006757;28;20038;-63
2021/03/29 02:18:45;;;;;;;7.82;4.35;;;7.00;60.60;;;;;;5004626;28;20038;-63
2021/03/29 02:21:23;;;;;;;11.27;4.25;;;7.00;60.80;;;;;;5004457;28;20121;-63
2021/03/29 02:23:56;;;;;;;8.27;3.88;;;7.00;60.10;;;;;;5001553;28;20034;-64
2021/03/29 02:26:24;;;;;;;6.40;3.88;;;7.10;59.90;;;;;;5002001;28;20084;-63
2021/03/29 02:28:55;;;;;;;6.50;3.90;;;7.00;59.60;;;;;;5005131;28;20620;-63
2021/03/29 02:31:25;;;;;;;6.50;4.15;;;7.00;59.90;;;;;;5003704;28;20030;-63
2021/03/29 02:33:57;;;;;;;6.72;3.90;;;7.10;59.90;;;;;;5008270;28;20504;-63
2021/03/29 02:36:23;;;;;;;5.38;3.47;;;7.10;59.70;;;;;;5005994;28;20591;-64
2021/03/29 02:38:52;;;;;;;3.83;3.35;;;7.10;59.70;;;;;;5003984;28;20432;-63
2021/03/29 02:41:25;;;;;;;5.72;3.70;;;7.00;59.70;;;;;;5003259;28;20173;-63
2021/03/29 02:43:54;;;;;;;5.95;3.65;;;6.90;59.80;;;;;;5006083;28;20049;-63
2021/03/29 02:46:26;;;;;;;6.68;3.70;;;6.90;59.50;;;;;;5003012;28;20958;-63
2021/03/29 02:48:56;;;;;;;5.78;3.50;;;6.90;59.70;;;;;;5005212;28;20034;-63
2021/03/29 02:51:27;;;;;;;4.72;3.42;;;6.80;59.40;;;;;;5002096;28;20420;-63
2021/03/29 02:53:57;;;;;;;6.40;3.83;;;6.80;59.60;;;;;;5003521;28;20131;-63
2021/03/29 02:56:30;;;;;;;7.88;3.83;;;6.70;59.60;;;;;;5000430;28;20501;-64
2021/03/29 02:59:04;;;;;;;8.20;3.75;;;6.60;59.60;;;;;;5005024;28;22234;-63
2021/03/29 03:01:35;;;;;;;4.65;3.35;;;6.60;59.60;;;;;;5002062;28;20584;-63
2021/03/29 03:04:01;;;;;;;5.70;3.42;;;6.50;59.60;;;;;;5006055;28;20304;-63
2021/03/29 03:06:30;;;;;;;5.57;3.88;;;6.50;59.60;;;;;;5005642;28;20058;-63
2021/03/29 03:09:00;;;;;;;5.40;3.90;;;6.40;59.80;;;;;;5004796;28;20100;-63
2021/03/29 03:11:28;;;;;;;5.82;3.38;;;6.30;59.70;;;;;;5001492;28;20038;-63
2021/03/29 03:13:59;;;;;;;6.53;3.67;;;6.30;59.80;;;;;;5009437;28;20467;-63
2021/03/29 03:16:29;;;;;;;4.45;3.42;;;6.30;59.90;;;;;;5009972;28;20052;-63
2021/03/29 03:18:57;;;;;;;5.63;3.90;;;6.30;59.90;;;;;;5009995;28;20041;-63
2021/03/29 03:21:22;;;;;;;4.55;3.88;;;6.30;59.90;;;;;;5007386;28;20133;-63
2021/03/29 03:23:53;;;;;;;7.20;3.97;;;6.30;60.00;;;;;;5007173;28;20117;-63
2021/03/29 03:26:22;;;;;;;5.57;4.00;;;6.30;60.30;;;;;;5007857;28;20057;-63
2021/03/29 03:28:54;;;;;;;8.40;4.25;;;6.30;60.20;;;;;;5008621;28;20026;-63
2021/03/29 03:31:20;;;;;;;9.25;4.10;;;6.30;60.20;;;;;;5006837;28;20042;-63
2021/03/29 03:33:51;;;;;;;5.28;3.88;;;6.20;60.10;;;;;;5003942;28;20030;-63
2021/03/29 03:36:22;;;;;;;6.07;3.75;;;6.20;60.00;;;;;;5003796;28;20112;-63
2021/03/29 03:38:52;;;;;;;5.60;3.90;;;6.20;60.10;;;;;;4999151;28;20053;-63
2021/03/29 03:41:29;;;;;;;6.20;4.22;;;6.10;60.40;;;;;;5000706;28;20396;-63
2021/03/29 03:44:01;;;;;;;5.60;3.63;;;6.20;61.00;;;;;;4998529;28;20424;-63
2021/03/29 03:46:34;;;;;;;6.32;3.63;;;6.10;60.40;;;;;;4997044;28;20035;-63
2021/03/29 03:49:12;;;;;;;9.15;4.03;;;6.10;60.50;;;;;;5001006;28;20030;-63
2021/03/29 03:51:38;;;;;;;6.32;3.75;;;6.00;61.20;;;;;;4997521;28;20038;-61
2021/03/29 03:54:10;;;;;;;5.13;3.70;;;6.00;60.80;;;;;;5008559;28;20052;-63
2021/03/29 03:56:39;;;;;;;8.13;4.20;;;6.00;61.00;;;;;;5004198;28;20029;-63
2021/03/29 03:59:08;;;;;;;7.70;3.65;;;5.90;60.90;;;;;;5007844;28;20534;-63
2021/03/29 04:01:48;;;;;;;8.00;4.13;;;5.90;61.10;;;;;;5007454;28;20692;-62
2021/03/29 04:04:18;;;;;;;7.53;4.15;;;5.90;61.60;;;;;;5002302;28;20034;-63
2021/03/29 04:06:47;;;;;;;9.13;3.95;;;5.80;61.40;;;;;;4998947;28;20041;-62
2021/03/29 04:09:17;;;;;;;6.85;3.70;;;5.70;61.30;;;;;;5000791;28;20033;-63
2021/03/29 04:11:50;;;;;;;7.30;3.75;;;5.70;61.30;;;;;;4998540;28;20061;-63
2021/03/29 04:14:18;;;;;;;6.60;4.40;;;5.60;61.30;;;;;;5005176;28;20037;-63
2021/03/29 04:16:48;;;;;;;5.38;3.78;;;5.60;61.40;;;;;;4998091;28;20033;-63
2021/03/29 04:19:18;;;;;;;10.20;4.40;;;5.60;61.60;;;;;;5005522;28;20034;-63
2021/03/29 04:21:44;;;;;;;6.90;3.83;;;5.60;61.50;;;;;;5003701;28;20030;-63
2021/03/29 04:24:12;;;;;;;11.00;4.97;;;5.60;61.60;;;;;;5008809;28;20480;-63
2021/03/29 04:26:42;;;;;;;9.25;4.35;;;5.60;61.80;;;;;;5005012;28;20053;-63
2021/03/29 04:29:08;;;;;;;22.23;12.10;;;5.60;61.90;;;;;;5004958;28;20037;-64
2021/03/29 04:31:38;;;;;;;13.93;5.55;;;5.60;61.80;;;;;;4996871;28;20029;-63
2021/03/29 04:34:06;;;;;;;8.20;5.00;;;5.60;61.80;;;;;;5000053;28;20086;-62
2021/03/29 04:36:34;;;;;;;17.95;7.13;;;5.60;61.80;;;;;;4999421;28;20092;-63
2021/03/29 04:39:00;;;;;;;13.43;6.63;;;5.70;61.80;;;;;;5001434;28;20030;-63
2021/03/29 04:41:25;;;;;;;8.88;5.65;;;5.60;61.90;;;;;;5013622;28;20045;-62
2021/03/29 04:43:56;;;;;;;8.63;4.53;;;5.60;61.70;;;;;;5003102;28;20505;-61
2021/03/29 04:46:24;;;;;;;7.93;4.38;;;5.70;62.10;;;;;;5007674;28;20038;-62
2021/03/29 04:48:56;;;;;;;7.78;4.57;;;5.60;62.10;;;;;;5006909;28;20026;-63
2021/03/29 04:51:22;;;;;;;7.60;4.25;;;5.60;62.40;;;;;;5008799;28;20034;-63
2021/03/29 04:53:48;;;;;;;8.27;4.20;;;5.60;62.30;;;;;;5007069;28;20110;-63
2021/03/29 04:56:16;;;;;;;8.40;4.50;;;5.60;62.20;;;;;;5009412;28;20041;-63
2021/03/29 04:58:41;;;;;;;10.70;4.43;;;5.60;62.50;;;;;;5006408;28;20040;-63
2021/03/29 05:01:07;;;;;;;11.43;5.00;;;5.50;62.30;;;;;;5007156;28;20401;-63
2021/03/29 05:03:35;;;;;;;8.55;4.70;;;5.60;62.50;;;;;;5006294;28;20942;-61
2021/03/29 05:06:03;;;;;;;9.85;5.18;;;5.50;62.60;;;;;;5009063;28;20034;-63
2021/03/29 05:08:28;;;;;;;18.85;6.45;;;5.50;62.50;;;;;;5008295;28;20512;-63
2021/03/29 05:10:56;;;;;;;11.55;6.00;;;5.50;62.60;;;;;;5001781;28;20034;-63
2021/03/29 05:13:24;;;;;;;11.98;6.05;;;5.50;62.90;;;;;;5008358;28;20038;-63
2021/03/29 05:15:52;;;;;;;13.63;5.55;;;5.50;63.80;;;;;;5008524;28;20033;-63
2021/03/29 05:18:22;;;;;;;10.40;5.10;;;5.50;63.00;;;;;;5008798;28;20125;-63
2021/03/29 05:20:50;;;;;;;9.32;5.43;;;5.50;63.20;;;;;;5007063;28;20164;-63
2021/03/29 05:23:20;;;;;;;11.63;4.95;;;5.50;64.00;;;;;;5008601;28;20038;-63
2021/03/29 05:25:46;;;;;;;11.52;5.25;;;5.50;63.20;;;;;;5008421;28;20037;-63
2021/03/29 05:28:11;;;;;;;10.73;5.15;;;5.50;63.10;;;;;;5008235;28;20433;-63
2021/03/29 05:30:39;;;;;;;9.77;5.35;;;5.60;63.40;;;;;;5007163;28;20030;-63
2021/03/29 05:33:08;;;;;;;7.80;4.30;;;5.60;63.40;;;;;;5007527;28;20026;-63
2021/03/29 05:35:33;;;;;;;10.70;4.70;;;5.70;63.50;;;;;;5005945;28;20026;-63
2021/03/29 05:38:03;;;;;;;10.60;5.80;;;5.70;63.40;;;;;;5008483;28;20064;-63
2021/03/29 05:40:29;;;;;;;14.68;6.22;;;5.80;63.80;;;;;;5007229;28;20038;-63
2021/03/29 05:42:55;;;;;;;12.48;5.90;;;5.80;63.60;;;;;;5007588;28;20037;-63
2021/03/29 05:45:24;;;;;;;15.25;4.63;;;5.80;63.60;;;;;;5006980;28;20452;-63
2021/03/29 05:47:54;;;;;;;26.23;5.22;;;5.90;63.60;;;;;;5008361;28;20045;-63
2021/03/29 05:50:20;;;;;;;16.70;5.68;;;5.90;63.70;;;;;;5007569;28;20413;-60
2021/03/29 05:52:48;;;;;;;13.75;4.90;;;5.90;63.50;;;;;;5008030;28;20033;-63
2021/03/29 05:55:17;;;;;;;18.70;4.80;;;5.90;63.70;;;;;;5007350;28;20030;-63
2021/03/29 06:00:44;;;;;;;22.85;8.18;;;5.90;63.90;;;;;;5006848;28;20069;-63
2021/03/29 06:03:34;;;;;;;20.48;8.13;;;6.00;64.40;;;;;;5007187;28;20343;-64
2021/03/29 06:06:04;;;;;;;20.48;8.68;;;6.00;64.70;;;;;;5005125;28;20497;-63
2021/03/29 06:08:42;;;;;;;18.15;8.27;;;6.00;63.80;;;;;;5005670;28;20026;-63
2021/03/29 06:11:41;;;;;;;16.23;7.07;;;6.00;63.70;;;;;;5003652;28;20033;-63
2021/03/29 06:14:11;;;;;;;13.02;5.75;;;6.10;64.70;;;;;;5007701;28;20038;-63
2021/03/29 06:16:59;;;;;;;10.45;5.75;;;6.10;63.90;;;;;;5006764;28;20113;-63
2021/03/29 06:19:45;;;;;;;11.73;5.15;;;6.20;65.20;;;;;;5006791;28;20042;-63
2021/03/29 06:22:20;;;;;;;8.68;4.88;;;6.20;65.00;;;;;;5007792;28;20034;-63
2021/03/29 06:25:07;;;;;;;8.38;4.82;;;6.30;64.40;;;;;;5006791;28;20069;-63
2021/03/29 06:27:45;;;;;;;8.07;5.00;;;6.40;65.10;;;;;;5006292;28;20105;-63
2021/03/29 06:30:21;;;;;;;6.65;4.57;;;6.50;64.80;;;;;;5007715;28;20687;-63
2021/03/29 06:33:14;;;;;;;9.60;5.45;;;6.50;65.40;;;;;;5007157;28;20058;-63
2021/03/29 06:35:43;;;;;;;7.10;5.07;;;6.50;65.40;;;;;;5004301;28;20045;-62
2021/03/29 06:38:11;;;;;;;8.30;4.97;;;6.50;64.50;;;;;;5004066;28;20412;-63
2021/03/29 06:40:40;;;;;;;8.65;5.60;;;6.60;64.60;;;;;;5006361;28;20030;-63
2021/03/29 06:43:37;;;;;;;10.73;6.95;;;6.60;64.60;;;;;;5006629;28;20087;-63
2021/03/29 06:46:24;;;;;;;7.88;5.30;;;6.70;65.60;;;;;;4996693;28;20057;-63
2021/03/29 06:48:52;;;;;;;6.63;4.40;;;6.70;65.50;;;;;;5010539;28;20109;-62
2021/03/29 06:51:27;;;;;;;6.03;4.55;;;6.70;64.80;;;;;;5010906;28;20129;-64
2021/03/29 06:54:09;;;;;;;6.55;4.50;;;6.80;65.00;;;;;;5002151;28;20651;-63
2021/03/29 06:56:44;;;;;;;6.95;4.70;;;6.80;65.10;;;;;;5008900;28;20033;-63
2021/03/29 06:59:26;;;;;;;7.63;5.18;;;6.90;66.00;;;;;;5006994;28;20485;-63
2021/03/29 07:02:00;;;;;;;9.15;4.63;;;6.90;65.70;;;;;;4998632;28;20927;-63
2021/03/29 07:04:26;;;;;;;8.20;4.90;;;7.00;65.40;;;;;;5024040;28;20694;-63
2021/03/29 07:06:54;;;;;;;7.18;4.80;;;7.10;65.00;;;;;;5009305;28;20034;-63
2021/03/29 07:09:25;;;;;;;9.15;4.68;;;7.10;65.30;;;;;;5006657;28;20034;-63
2021/03/29 07:11:56;;;;;;;8.43;4.57;;;7.10;65.00;;;;;;5006812;28;20405;-63
2021/03/29 07:14:22;;;;;;;7.20;4.45;;;7.20;65.40;;;;;;5009460;28;20468;-63
2021/03/29 07:16:48;;;;;;;8.90;4.47;;;7.30;65.10;;;;;;5010242;28;20030;-63
2021/03/29 07:19:16;;;;;;;7.63;4.47;;;7.40;65.20;;;;;;5009463;28;20042;-63
2021/03/29 07:21:42;;;;;;;10.38;4.35;;;7.40;64.70;;;;;;5009047;28;20040;-63
2021/03/29 07:24:11;;;;;;;9.60;4.40;;;7.50;64.50;;;;;;5009291;28;20034;-63
2021/03/29 07:26:42;;;;;;;6.03;4.65;;;7.60;64.40;;;;;;5008154;28;20037;-63
2021/03/29 07:29:31;;;;;;;6.60;4.40;;;7.70;64.90;;;;;;5010345;28;20033;-63
2021/03/29 07:32:01;;;;;;;6.63;4.28;;;7.80;66.10;;;;;;5007059;28;20041;-63
2021/03/29 07:34:52;;;;;;;6.32;3.90;;;7.90;65.00;;;;;;5007456;28;20139;-63
2021/03/29 07:37:26;;;;;;;5.15;3.92;;;8.10;65.10;;;;;;5007599;28;20030;-63
2021/03/29 07:39:52;;;;;;;5.22;3.80;;;8.20;64.20;;;;;;5008900;28;20568;-63
2021/03/29 07:42:24;;;;;;;7.63;3.83;;;8.30;63.80;;;;;;5008975;28;20402;-63
2021/03/29 07:45:01;;;;;;;5.03;3.92;;;8.40;63.70;;;;;;5023851;28;20133;-63
2021/03/29 07:47:46;;;;;;;6.85;4.05;;;8.60;63.60;;;;;;5008764;28;20038;-63
2021/03/29 07:50:24;;;;;;;8.07;3.75;;;8.70;63.70;;;;;;5008140;28;20034;-64
2021/03/29 07:52:57;;;;;;;5.10;3.80;;;8.80;63.70;;;;;;5006262;28;20037;-63
2021/03/29 07:55:28;;;;;;;7.00;3.97;;;9.00;63.30;;;;;;5009170;28;20240;-63
2021/03/29 07:57:59;;;;;;;7.90;4.05;;;9.10;62.70;;;;;;5005294;28;20556;-63
2021/03/29 08:00:30;;;;;;;5.78;3.72;;;9.30;62.50;;;;;;5007295;28;20069;-63
2021/03/29 08:02:59;;;;;;;8.75;4.10;;;9.40;62.00;;;;;;5009273;28;20034;-64
2021/03/29 08:05:47;;;;;;;5.85;3.92;;;9.50;61.90;;;;;;5009243;28;20053;-64
2021/03/29 08:08:30;;;;;;;8.80;4.50;;;9.70;62.00;;;;;;5009327;28;20069;-64
2021/03/29 08:10:57;;;;;;;7.55;4.55;;;9.80;61.50;;;;;;5004151;28;20509;-64
2021/03/29 08:13:56;;;;;;;7.95;3.92;;;9.90;61.20;;;;;;5006929;28;20046;-63
2021/03/29 08:16:30;;;;;;;7.60;3.88;;;10.00;61.20;;;;;;5009235;28;20052;-62
2021/03/29 08:19:08;;;;;;;6.03;3.72;;;10.20;60.80;;;;;;5005547;28;20049;-63
2021/03/29 08:21:55;;;;;;;6.22;3.78;;;10.30;60.80;;;;;;5006706;28;20042;-63
2021/03/29 08:24:23;;;;;;;7.68;3.95;;;10.50;61.00;;;;;;5009388;28;20037;-64
2021/03/29 08:26:50;;;;;;;7.43;3.85;;;10.60;60.50;;;;;;5009464;28;20026;-63
2021/03/29 08:29:23;;;;;;;5.35;3.83;;;10.70;60.50;;;;;;5007961;28;20022;-64
2021/03/29 08:32:09;;;;;;;5.78;3.58;;;10.80;60.50;;;;;;5000611;28;20034;-64
2021/03/29 08:34:36;;;;;;;7.78;4.03;;;10.90;60.50;;;;;;5006079;28;20066;-64
2021/03/29 08:37:06;;;;;;;7.97;3.95;;;11.00;60.10;;;;;;5007651;28;20038;-64
2021/03/29 08:39:47;;;;;;;5.35;3.80;;;11.10;59.90;;;;;;5008509;28;20042;-64
2021/03/29 08:42:16;;;;;;;9.85;3.78;;;11.20;59.40;;;;;;5008226;28;20057;-64
2021/03/29 08:44:45;;;;;;;7.38;4.45;;;11.40;59.30;;;;;;5008259;28;20774;-64
2021/03/29 08:47:27;;;;;;;6.22;3.35;;;11.50;59.00;;;;;;5008506;28;20030;-64
2021/03/29 08:50:05;;;;;;;8.48;3.40;;;11.60;59.00;;;;;;5007906;28;20065;-64
2021/03/29 08:52:49;;;;;;;8.18;3.28;;;11.70;58.90;;;;;;5007130;28;20041;-64
2021/03/29 08:55:22;;;;;;;5.90;3.30;;;11.90;59.00;;;;;;5005385;28;20149;-64
2021/03/29 08:57:54;;;;;;;5.68;3.13;;;12.10;58.70;;;;;;5008227;28;20109;-64
2021/03/29 09:00:25;;;;;;;8.13;3.05;;;12.20;58.50;;;;;;5007884;28;20463;-64
2021/03/29 09:02:51;;;;;;;5.97;2.80;;;12.30;58.00;;;;;;5007892;28;20026;-64
2021/03/29 09:05:23;;;;;;;4.28;2.72;;;12.50;57.70;;;;;;5006964;28;20551;-64
2021/03/29 09:07:52;;;;;;;6.32;2.60;;;12.60;57.00;;;;;;5007072;28;20033;-64
2021/03/29 09:10:33;;;;;;;5.38;2.50;;;12.80;56.70;;;;;;5006389;28;20048;-64
2021/03/29 09:13:13;;;;;;;3.47;2.45;;;12.90;55.20;;;;;;5007672;28;20030;-64
2021/03/29 09:15:52;;;;;;;8.40;2.75;;;13.00;55.40;;;;;;5006646;28;20108;-64
2021/03/29 09:18:27;;;;;;;6.55;2.60;;;13.20;55.00;;;;;;5008373;28;20109;-64
2021/03/29 09:20:58;;;;;;;2.90;2.28;;;13.30;54.70;;;;;;5007608;28;20539;-64
2021/03/29 09:23:28;;;;;;;4.40;2.55;;;13.40;54.80;;;;;;5007355;28;20038;-64
2021/03/29 09:25:58;;;;;;;3.33;2.25;;;13.60;54.50;;;;;;5006257;28;20030;-64
2021/03/29 09:31:01;;;;;;;5.20;3.70;;;13.80;54.10;;;;;;5007552;28;20516;-64
2021/03/29 09:33:28;;;;;;;4.65;2.63;;;13.90;52.60;;;;;;5006430;28;20034;-64
2021/03/29 09:35:59;;;;;;;4.45;2.22;;;14.00;52.70;;;;;;5006108;28;20045;-64
2021/03/29 09:38:35;;;;;;;7.15;2.25;;;14.10;51.80;;;;;;5005836;28;20492;-64
2021/03/29 09:41:02;;;;;;;4.55;1.65;;;14.20;50.90;;;;;;5005708;28;20033;-64
2021/03/29 09:43:30;;;;;;;3.78;1.50;;;14.30;50.40;;;;;;5007072;28;20041;-64
2021/03/29 09:46:05;;;;;;;2.20;1.30;;;14.40;49.00;;;;;;5006951;28;20030;-64
2021/03/29 09:48:33;;;;;;;3.35;1.50;;;14.50;47.90;;;;;;5005270;28;20033;-64
2021/03/29 09:51:04;;;;;;;3.38;1.60;;;14.50;48.60;;;;;;5006645;28;20036;-64
2021/03/29 09:53:35;;;;;;;2.60;1.55;;;14.70;48.90;;;;;;5002614;28;20038;-64
2021/03/29 09:56:04;;;;;;;4.55;2.00;;;14.70;48.90;;;;;;5003522;28;20509;-64
2021/03/29 09:58:36;;;;;;;2.80;1.80;;;14.80;48.90;;;;;;5005490;28;20101;-64
2021/03/29 10:01:19;;;;;;;3.28;1.50;;;14.90;48.80;;;;;;5007271;28;20053;-64
2021/03/29 10:04:00;;;;;;;2.42;1.70;;;15.00;48.90;;;;;;5019133;28;20053;-64
2021/03/29 10:06:31;;;;;;;9.70;1.85;;;15.10;48.40;;;;;;5007162;28;20066;-64
2021/03/29 10:09:01;;;;;;;4.10;1.60;;;15.20;47.10;;;;;;5005720;28;20194;-64
2021/03/29 10:11:41;;;;;;;3.22;1.83;;;15.30;47.30;;;;;;5003432;28;20080;-64
2021/03/29 10:14:07;;;;;;;4.70;1.95;;;15.40;47.60;;;;;;5007682;28;20030;-64
2021/03/29 10:16:45;;;;;;;5.18;2.40;;;15.50;47.50;;;;;;5006605;28;20033;-64
2021/03/29 10:19:15;;;;;;;4.95;1.90;;;15.50;47.10;;;;;;5007852;28;20566;-64
2021/03/29 10:22:14;;;;;;;2.60;1.63;;;15.70;47.10;;;;;;5004240;28;20042;-64
2021/03/29 10:25:21;;;;;;;3.80;1.80;;;15.70;46.50;;;;;;5004443;28;20118;-64
2021/03/29 10:27:51;;;;;;;2.20;1.48;;;15.80;46.90;;;;;;5005833;28;20061;-64
2021/03/29 10:30:22;;;;;;;3.08;1.52;;;15.90;47.60;;;;;;5006735;28;20603;-64
2021/03/29 10:33:05;;;;;;;3.28;1.70;;;16.00;47.90;;;;;;5006746;28;20489;-64
2021/03/29 10:35:32;;;;;;;6.10;1.80;;;16.10;46.70;;;;;;5005723;28;20034;-64
2021/03/29 10:38:01;;;;;;;5.10;1.80;;;16.20;47.30;;;;;;5007750;28;20125;-65
2021/03/29 10:40:27;;;;;;;3.05;2.03;;;16.30;47.60;;;;;;5004919;28;20497;-64
2021/03/29 10:42:52;;;;;;;5.95;1.85;;;16.40;47.40;;;;;;5006138;28;20068;-64
2021/03/29 10:45:19;;;;;;;1.90;1.52;;;16.50;47.20;;;;;;5002968;28;20026;-64
2021/03/29 10:47:45;;;;;;;1.95;1.45;;;16.60;47.00;;;;;;5007209;28;20065;-64
2021/03/29 10:50:15;;;;;;;2.80;1.80;;;16.70;46.70;;;;;;5004027;28;20033;-65
2021/03/29 10:52:43;;;;;;;2.20;1.40;;;16.80;46.50;;;;;;4997722;28;20049;-65
2021/03/29 10:55:10;;;;;;;2.25;1.42;;;16.90;46.10;;;;;;5008310;28;20572;-65
2021/03/29 10:57:39;;;;;;;2.33;1.60;;;17.00;45.70;;;;;;5006308;28;20061;-65
2021/03/29 11:00:11;;;;;;;4.38;1.20;;;17.10;45.70;;;;;;5007069;28;20026;-65
2021/03/29 11:02:37;;;;;;;4.30;1.52;;;17.20;44.80;;;;;;5005452;28;20034;-64
2021/03/29 11:05:04;;;;;;;2.95;1.40;;;17.30;44.60;;;;;;5006830;28;20409;-65
2021/03/29 11:07:30;;;;;;;2.03;1.70;;;17.30;43.70;;;;;;5004914;28;20068;-65
2021/03/29 11:10:00;;;;;;;6.20;1.70;;;17.30;43.50;;;;;;5008051;28;20030;-65
2021/03/29 11:12:28;;;;;;;2.45;1.40;;;17.40;43.40;;;;;;5010724;28;20041;-65
2021/03/29 11:14:56;;;;;;;3.05;1.60;;;17.40;43.50;;;;;;5006809;28;20401;-64
2021/03/29 11:17:25;;;;;;;2.63;1.35;;;17.40;43.20;;;;;;5007050;28;20041;-65
2021/03/29 11:19:51;;;;;;;2.28;1.42;;;17.50;43.10;;;;;;5005016;28;20034;-65
2021/03/29 11:22:19;;;;;;;4.68;1.50;;;17.60;41.30;;;;;;4998276;28;20026;-65
2021/03/29 11:24:49;;;;;;;5.68;1.60;;;17.60;40.30;;;;;;5005718;28;20042;-65
2021/03/29 11:27:17;;;;;;;2.08;1.40;;;17.70;39.60;;;;;;5007154;28;20034;-65
2021/03/29 11:29:45;;;;;;;3.50;1.30;;;17.70;40.70;;;;;;5005205;28;20038;-65
2021/03/29 11:32:11;;;;;;;3.75;1.52;;;17.80;40.70;;;;;;5008037;28;20081;-64
2021/03/29 11:34:39;;;;;;;4.32;1.33;;;17.80;41.30;;;;;;5009914;28;20517;-65
2021/03/29 11:37:07;;;;;;;4.93;1.65;;;17.80;41.20;;;;;;5019904;28;20042;-64
2021/03/29 11:39:36;;;;;;;2.78;1.27;;;17.90;41.40;;;;;;5009688;28;20034;-65
2021/03/29 11:42:02;;;;;;;2.03;1.05;;;18.00;40.40;;;;;;5009851;28;20030;-64
2021/03/29 11:44:27;;;;;;;2.25;0.90;;;18.00;40.40;;;;;;5008139;28;20029;-64
2021/03/29 11:46:59;;;;;;;2.38;1.08;;;18.10;39.90;;;;;;5010631;28;20513;-65
2021/03/29 11:49:24;;;;;;;0.98;0.88;;;18.20;39.00;;;;;;5009365;28;20087;-65
2021/03/29 11:51:50;;;;;;;1.02;0.90;;;18.30;38.70;;;;;;5009045;28;20109;-65
2021/03/29 11:54:15;;;;;;;2.53;0.80;;;18.40;37.50;;;;;;5008305;28;20237;-65
2021/03/29 11:56:45;;;;;;;2.38;0.80;;;18.50;36.20;;;;;;5007392;28;20041;-65
2021/03/29 11:59:13;;;;;;;1.10;1.00;;;18.60;35.90;;;;;;5008053;28;20037;-65
2021/03/29 12:04:13;;;;;;;2.63;0.80;;;18.60;35.10;;;;;;5008586;28;20065;-64
2021/03/29 12:07:00;;;;;;;0.85;0.80;;;18.60;34.00;;;;;;5009591;28;20103;-64
2021/03/29 12:09:37;;;;;;;1.30;0.73;;;18.70;33.40;;;;;;5008740;28;20124;-64
2021/03/29 12:12:06;;;;;;;1.50;0.90;;;18.70;34.50;;;;;;5004173;28;20034;-64
2021/03/29 12:14:37;;;;;;;2.03;0.88;;;18.70;34.40;;;;;;5007006;28;20041;-64
2021/03/29 12:17:10;;;;;;;1.30;0.90;;;18.80;33.10;;;;;;5009355;28;20026;-63
2021/03/29 12:19:41;;;;;;;0.90;0.60;;;18.80;33.70;;;;;;5009151;28;20029;-64
2021/03/29 12:22:21;;;;;;;1.52;0.90;;;18.80;33.20;;;;;;5008713;28;20171;-64
2021/03/29 12:24:51;;;;;;;2.58;0.80;;;18.90;32.40;;;;;;5008374;28;20497;-64
2021/03/29 12:27:20;;;;;;;1.63;1.00;;;19.00;33.20;;;;;;5008080;28;20129;-64
2021/03/29 12:29:51;;;;;;;1.17;0.75;;;19.00;33.60;;;;;;5008864;28;20034;-64
2021/03/29 12:32:19;;;;;;;1.00;0.65;;;19.00;32.60;;;;;;5007666;28;20125;-64
2021/03/29 12:34:54;;;;;;;2.60;0.90;;;19.00;33.20;;;;;;5007358;28;20120;-64
2021/03/29 12:37:24;;;;;;;1.23;0.90;;;19.10;31.80;;;;;;5009218;28;20167;-64
2021/03/29 12:39:55;;;;;;;3.35;1.00;;;19.10;32.30;;;;;;5009230;28;20034;-64
2021/03/29 12:42:26;;;;;;;1.60;0.82;;;19.20;33.10;;;;;;5006826;28;20053;-62
2021/03/29 12:44:54;;;;;;;2.25;1.02;;;19.20;31.60;;;;;;5007005;28;20041;-64
2021/03/29 12:47:29;;;;;;;1.75;0.80;;;19.20;32.60;;;;;;5007859;28;20029;-64
2021/03/29 12:49:55;;;;;;;2.70;0.95;;;19.20;31.50;;;;;;5004480;28;20033;-64
2021/03/29 12:52:28;;;;;;;1.30;1.02;;;19.30;32.60;;;;;;5006051;28;20034;-62
2021/03/29 12:54:56;;;;;;;2.70;0.65;;;19.30;32.20;;;;;;5008668;28;20033;-64
2021/03/29 12:57:22;;;;;;;1.25;0.70;;;19.40;32.30;;;;;;5008687;28;20053;-64
2021/03/29 12:59:49;;;;;;;1.42;0.90;;;19.50;32.20;;;;;;5007500;28;20026;-64
2021/03/29 13:02:22;;;;;;;1.58;0.90;;;19.50;32.10;;;;;;5004774;28;20479;-64
2021/03/29 13:04:49;;;;;;;1.27;1.00;;;19.50;31.60;;;;;;5006064;28;20049;-64
2021/03/29 13:07:35;;;;;;;1.08;0.70;;;19.60;32.80;;;;;;5003271;28;20044;-64
2021/03/29 13:10:46;;;;;;;3.13;1.00;;;19.70;31.00;;;;;;5005004;28;20038;-64
2021/03/29 13:12:52;;;;;;;0.65;0.60;;;19.70;31.80;;;;;;5004095;28;20071;-64
2021/03/29 13:15:20;;;;;;;1.63;0.90;;;19.70;32.10;;;;;;5003571;28;20467;-64
2021/03/29 13:17:45;;;;;;;2.17;0.90;;;19.80;31.60;;;;;;5008477;28;20026;-64
2021/03/29 13:20:18;;;;;;;2.25;0.90;;;19.80;31.10;;;;;;5008374;28;20084;-64
2021/03/29 13:22:52;;;;;;;1.67;0.98;;;19.80;29.90;;;;;;5007622;28;20406;-64